This is the latest recevied weather packets stored in our database for station/object K9NZF-1. If no packets are shown the sender has not sent any weather packets the latest 10 day(s).
| Time | Temp. | Humidity | Pressure | Rain* | Wind** | Luminosity | Snow |
|---|---|---|---|---|---|---|---|
| 1778008477 | 12.22° C | 91% | 1007.3 hPa | 3.56 mm | - | 148 W/m² | - |
| 1778008419 | 12.22° C | 91% | 1007.3 hPa | 3.56 mm | - | 142 W/m² | - |
| 1778008357 | 12.22° C | 91% | 1007.4 hPa | 3.3 mm | - | 132 W/m² | - |
| 1778008295 | 12.22° C | 91% | 1007.5 hPa | 3.3 mm | - | 109 W/m² | - |
| 1778008234 | 12.22° C | 91% | 1007.6 hPa | 3.3 mm | - | 90 W/m² | - |
| 1778008173 | 12.22° C | 91% | 1007.6 hPa | 3.3 mm | - | 91 W/m² | - |
| 1778008114 | 12.22° C | 91% | 1007.5 hPa | 3.3 mm | - | 107 W/m² | - |
| 1778008053 | 12.22° C | 91% | 1007.5 hPa | 3.56 mm | - | 127 W/m² | - |
| 1778007990 | 12.22° C | 91% | 1007.5 hPa | 3.56 mm | - | 135 W/m² | - |
| 1778007932 | 12.22° C | 91% | 1007.5 hPa | 3.56 mm | - | 139 W/m² | - |
| 1778007810 | 12.22° C | 91% | 1007.6 hPa | 3.3 mm | - | 134 W/m² | - |
| 1778007749 | 12.22° C | 91% | 1007.5 hPa | 3.3 mm | - | 137 W/m² | - |
| 1778007688 | 12.22° C | 91% | 1007.5 hPa | 3.3 mm | - | 139 W/m² | - |
| 1778007625 | 12.22° C | 91% | 1007.6 hPa | 3.3 mm | - | 137 W/m² | - |
| 1778007565 | 12.22° C | 91% | 1007.7 hPa | 3.3 mm | - | 130 W/m² | - |
| 1778007507 | 12.22° C | 91% | 1007.7 hPa | 3.05 mm | - | 118 W/m² | - |
| 1778007444 | 12.22° C | 91% | 1007.8 hPa | 3.05 mm | - | 113 W/m² | - |
| 1778007385 | 12.22° C | 91% | 1007.7 hPa | 3.05 mm | - | 116 W/m² | - |
| 1778007327 | 12.22° C | 91% | 1007.6 hPa | 2.79 mm | - | 120 W/m² | - |
| 1778007270 | 12.22° C | 91% | 1007.8 hPa | 2.79 mm | - | 76 W/m² | - |
| 1778007205 | 12.22° C | 91% | 1007.9 hPa | 2.79 mm | - | 46 W/m² | - |
| 1778007144 | 12.22° C | 91% | 1008 hPa | 2.54 mm | - | 32 W/m² | - |
| 1778007081 | 12.22° C | 90% | 1008 hPa | 2.54 mm | - | 30 W/m² | - |
| 1778007022 | 12.22° C | 90% | 1008 hPa | 2.29 mm | - | 37 W/m² | - |
| 1778006956 | 12.22° C | 90% | 1007.9 hPa | 2.03 mm | - | 44 W/m² | - |
* Rain latest hour (hover to see other rain measurements)
** Current wind speed in m/s (hover to see current wind gust speed)